Time;durP1;ratioP1;P1;durP2;ratioP2;P2;SDS_P1;SDS_P2;PMS_P1;PMS_P2;Temp;Humidity;BMP_temperature;BMP_pressure;BME280_temperature;BME280_humidity;BME280_pressure;Samples;Min_cycle;Max_cycle;Signal;HPM_P1;HPM_P2
2022/01/06 00:00:55;;;;;;;9.57;4.97;;;;;;;5.96;87.75;99267.89;1406891;92;21370;-82
2022/01/06 00:03:54;;;;;;;6.53;3.90;;;;;;;5.97;87.78;99269.03;1406729;88;21553;-82
2022/01/06 00:06:30;;;;;;;5.97;4.43;;;;;;;5.99;87.68;99265.78;1496714;88;22477;-82
2022/01/06 00:09:41;;;;;;;8.23;5.10;;;;;;;6.00;87.35;99262.17;1431263;88;21867;-79
2022/01/06 00:23:38;;;;;;;5.83;4.30;;;;;;;6.07;86.99;99254.06;1418255;89;21316;-82
2022/01/06 00:32:12;;;;;;;11.67;4.20;;;;;;;6.15;86.58;99260.36;1422236;88;21481;-81
2022/01/06 00:34:43;;;;;;;7.30;4.47;;;;;;;6.14;86.47;99254.29;1448650;87;21486;-82
2022/01/06 00:37:17;;;;;;;5.20;3.93;;;;;;;6.12;86.40;99244.41;1435180;88;21731;-81
2022/01/06 00:39:46;;;;;;;4.67;3.60;;;;;;;6.11;86.26;99238.83;1449946;88;22084;-82
2022/01/06 00:42:22;;;;;;;8.50;4.10;;;;;;;6.10;86.18;99243.26;1453359;88;22612;-79
2022/01/06 00:44:48;;;;;;;5.63;3.80;;;;;;;6.12;86.15;99254.91;1433446;88;21618;-80
2022/01/06 00:47:26;;;;;;;5.33;4.17;;;;;;;6.13;86.05;99264.47;1447174;88;21397;-80
2022/01/06 00:50:39;;;;;;;5.93;3.73;;;;;;;6.13;85.88;99268.87;1424645;88;21532;-80
2022/01/06 00:53:12;;;;;;;9.07;5.77;;;;;;;6.11;85.75;99274.29;1432273;88;21542;-80
2022/01/06 00:55:39;;;;;;;6.30;4.53;;;;;;;6.05;85.68;99269.63;1446807;87;21605;-80
2022/01/06 00:58:06;;;;;;;5.93;4.27;;;;;;;6.02;85.80;99265.49;1404196;88;22190;-80
2022/01/06 01:00:40;;;;;;;5.00;3.33;;;;;;;6.03;85.79;99261.06;1425410;88;21348;-80
2022/01/06 01:03:19;;;;;;;6.27;4.67;;;;;;;6.05;85.86;99285.39;1453817;88;21938;-80
2022/01/06 01:05:49;;;;;;;6.13;3.80;;;;;;;6.06;85.86;99299.67;1493936;88;21415;-80
2022/01/06 01:08:16;;;;;;;6.77;4.43;;;;;;;6.07;85.76;99296.09;1427039;88;21326;-80
2022/01/06 01:10:43;;;;;;;6.90;4.63;;;;;;;6.05;85.81;99307.22;1407439;89;21324;-81
2022/01/06 01:13:13;;;;;;;8.13;5.50;;;;;;;6.03;85.51;99316.22;1421435;89;21402;-79
2022/01/06 01:15:46;;;;;;;6.03;4.77;;;;;;;5.99;85.60;99309.13;1444955;87;21444;-80
2022/01/06 01:18:10;;;;;;;6.77;5.00;;;;;;;5.97;85.67;99315.00;1425528;88;22024;-80
2022/01/06 01:20:36;;;;;;;7.33;4.27;;;;;;;5.98;85.77;99321.89;1460017;88;21882;-82
2022/01/06 01:23:03;;;;;;;6.30;4.63;;;;;;;6.00;85.92;99327.84;1407313;88;22191;-80
2022/01/06 01:25:29;;;;;;;6.63;4.67;;;;;;;6.02;85.96;99320.65;1427565;88;21282;-81
2022/01/06 01:27:56;;;;;;;7.13;4.87;;;;;;;6.03;85.93;99320.98;1453120;88;21561;-81
2022/01/06 01:30:31;;;;;;;7.07;4.73;;;;;;;6.03;85.75;99320.98;1456240;88;21863;-80
2022/01/06 01:32:54;;;;;;;5.37;4.37;;;;;;;6.00;85.57;99325.70;1433457;88;21516;-80
2022/01/06 01:35:20;;;;;;;7.57;4.83;;;;;;;5.93;85.83;99324.16;1468538;88;21477;-80
2022/01/06 01:37:46;;;;;;;6.37;4.20;;;;;;;5.82;86.53;99323.81;1456024;88;22294;-80
2022/01/06 01:40:13;;;;;;;5.23;3.77;;;;;;;5.79;86.59;99328.04;1478080;88;21605;-80
2022/01/06 01:42:41;;;;;;;4.97;3.53;;;;;;;5.75;86.73;99326.66;1430727;88;21257;-79
2022/01/06 01:45:09;;;;;;;5.67;4.23;;;;;;;5.72;87.82;99329.56;1397955;88;22153;-80
2022/01/06 01:47:40;;;;;;;5.30;3.57;;;;;;;5.68;87.76;99329.52;1443453;88;21437;-80
2022/01/06 01:50:16;;;;;;;5.27;3.83;;;;;;;5.62;87.58;99342.73;1413128;89;22827;-80
2022/01/06 01:52:52;;;;;;;4.77;3.60;;;;;;;5.57;88.30;99338.87;1416552;88;22383;-80
2022/01/06 01:55:23;;;;;;;4.40;3.23;;;;;;;5.53;87.50;99324.39;1452892;88;21421;-82
2022/01/06 01:57:51;;;;;;;5.33;3.83;;;;;;;5.41;87.38;99314.55;1468052;88;22588;-81
2022/01/06 02:00:19;;;;;;;7.23;4.47;;;;;;;5.31;87.82;99323.73;1456401;88;21422;-80
2022/01/06 02:02:47;;;;;;;4.70;3.23;;;;;;;5.26;87.61;99324.63;1471372;88;21451;-80
2022/01/06 02:05:13;;;;;;;5.73;3.10;;;;;;;5.16;87.30;99333.02;1390651;88;21371;-81
2022/01/06 02:07:41;;;;;;;7.17;3.93;;;;;;;4.96;85.06;99334.82;1416102;88;21355;-81
2022/01/06 02:10:10;;;;;;;6.50;3.00;;;;;;;4.92;84.68;99337.35;1420796;89;21327;-81
2022/01/06 02:12:39;;;;;;;5.70;3.00;;;;;;;4.81;84.08;99347.52;1382023;88;21399;-81
2022/01/06 02:15:08;;;;;;;7.30;2.70;;;;;;;4.71;84.13;99344.05;1455855;87;21333;-82
2022/01/06 02:17:34;;;;;;;5.70;2.70;;;;;;;4.67;83.81;99348.73;1412274;88;21280;-81
2022/01/06 02:20:04;;;;;;;4.40;2.87;;;;;;;4.63;84.15;99360.92;1434564;88;22308;-81
2022/01/06 02:22:30;;;;;;;5.07;3.00;;;;;;;4.58;84.13;99360.53;1416130;89;21327;-82
2022/01/06 02:24:56;;;;;;;5.80;3.40;;;;;;;4.46;83.79;99363.72;1412558;88;21290;-81
2022/01/06 02:27:22;;;;;;;7.27;2.47;;;;;;;4.40;83.70;99365.11;1416887;89;21560;-81
2022/01/06 02:29:51;;;;;;;3.70;2.03;;;;;;;4.39;84.17;99365.23;1405184;88;22263;-81
2022/01/06 02:32:21;;;;;;;4.97;2.93;;;;;;;4.36;83.86;99373.36;1434712;88;21319;-82
2022/01/06 02:34:47;;;;;;;5.63;3.30;;;;;;;4.31;83.77;99369.81;1430726;90;21504;-82
2022/01/06 02:37:15;;;;;;;7.50;3.50;;;;;;;4.33;84.25;99373.63;1459923;88;22358;-81
2022/01/06 02:39:44;;;;;;;4.50;2.63;;;;;;;4.29;83.59;99370.45;1431200;88;21384;-81
2022/01/06 02:42:11;;;;;;;5.87;3.13;;;;;;;4.27;83.55;99369.27;1468424;88;22767;-81
2022/01/06 02:44:39;;;;;;;5.30;3.27;;;;;;;4.28;84.28;99366.16;1494437;88;21523;-82
2022/01/06 02:47:07;;;;;;;4.10;2.80;;;;;;;4.33;84.16;99366.59;1441182;87;21449;-82
2022/01/06 02:49:34;;;;;;;4.57;2.87;;;;;;;4.35;83.84;99365.16;1490224;88;21443;-81
2022/01/06 02:52:00;;;;;;;4.00;2.73;;;;;;;4.36;84.20;99365.02;1428567;87;21341;-82
2022/01/06 02:54:27;;;;;;;3.33;2.57;;;;;;;4.35;83.21;99368.61;1437871;88;21288;-82
2022/01/06 02:56:54;;;;;;;7.13;3.87;;;;;;;4.31;83.03;99365.89;1444668;88;21296;-82
2022/01/06 02:59:20;;;;;;;5.23;3.33;;;;;;;4.29;83.02;99359.98;1434300;89;21325;-82
2022/01/06 03:01:47;;;;;;;6.00;3.67;;;;;;;4.25;83.91;99352.84;1435575;88;22235;-82
2022/01/06 03:04:13;;;;;;;3.27;2.67;;;;;;;4.30;82.93;99355.08;1458402;87;21364;-80
2022/01/06 03:06:40;;;;;;;4.90;2.80;;;;;;;4.28;82.15;99349.13;1439504;88;21295;-80
2022/01/06 03:09:08;;;;;;;6.13;3.10;;;;;;;4.16;81.54;99326.15;1464829;88;21280;-80
2022/01/06 03:11:40;;;;;;;7.30;3.47;;;;;;;4.16;81.54;99326.15;1454003;88;22175;-81
2022/01/06 03:14:03;;;;;;;5.23;3.30;;;;;;;4.16;81.66;99334.48;1432973;88;23097;-81
2022/01/06 03:16:29;;;;;;;5.33;3.20;;;;;;;4.06;81.50;99335.30;1429756;88;22960;-81
2022/01/06 03:18:55;;;;;;;5.93;3.47;;;;;;;4.11;81.98;99358.94;1452499;88;21398;-82
2022/01/06 03:21:21;;;;;;;7.20;4.17;;;;;;;4.11;81.98;99358.94;1451129;88;21414;-81
2022/01/06 03:23:47;;;;;;;5.53;3.27;;;;;;;4.09;81.70;99360.87;1439804;88;21406;-80
2022/01/06 03:26:13;;;;;;;5.97;3.53;;;;;;;4.07;81.69;99357.89;1465453;88;21560;-81
2022/01/06 03:28:39;;;;;;;5.50;3.03;;;;;;;3.97;81.48;99353.27;1431554;88;21466;-82
2022/01/06 03:31:06;;;;;;;6.47;3.30;;;;;;;3.90;81.53;99353.27;1455621;88;22398;-82
2022/01/06 03:33:32;;;;;;;7.13;3.53;;;;;;;3.89;82.08;99339.48;1415498;90;22314;-80
2022/01/06 03:35:58;;;;;;;9.57;4.17;;;;;;;3.88;82.78;99339.48;1416515;89;21369;-80
2022/01/06 03:38:24;;;;;;;5.63;2.73;;;;;;;3.93;82.87;99339.92;1456153;88;23168;-80
2022/01/06 03:40:50;;;;;;;6.93;2.97;;;;;;;3.89;83.32;99348.19;1445354;88;21383;-80
2022/01/06 03:43:16;;;;;;;5.83;3.50;;;;;;;3.83;83.54;99350.84;1457927;88;22152;-79
2022/01/06 03:45:43;;;;;;;5.27;2.60;;;;;;;3.80;83.72;99355.03;1452559;87;22292;-80
2022/01/06 03:48:09;;;;;;;10.53;4.00;;;;;;;3.77;83.72;99348.72;1432262;88;21636;-80
2022/01/06 03:50:35;;;;;;;7.97;3.47;;;;;;;3.75;84.03;99348.05;1446998;88;22169;-80
2022/01/06 03:53:01;;;;;;;5.47;3.20;;;;;;;3.76;83.92;99362.78;1444509;88;22310;-79
2022/01/06 03:55:27;;;;;;;6.83;3.63;;;;;;;3.77;83.72;99376.20;1457986;88;22122;-80
2022/01/06 03:57:54;;;;;;;6.37;3.37;;;;;;;3.80;83.76;99372.05;1448915;88;22675;-81
2022/01/06 04:00:22;;;;;;;6.10;3.60;;;;;;;3.80;84.02;99354.55;1446465;88;22367;-80
2022/01/06 04:02:48;;;;;;;4.73;3.53;;;;;;;3.75;83.44;99358.03;1450418;88;22165;-80
2022/01/06 04:05:15;;;;;;;5.10;2.90;;;;;;;3.74;83.68;99346.37;1459953;88;23126;-81
2022/01/06 04:07:41;;;;;;;8.17;3.63;;;;;;;3.72;83.90;99348.30;1447714;88;22158;-80
2022/01/06 04:10:10;;;;;;;7.67;3.80;;;;;;;3.71;84.27;99342.25;1454162;88;22232;-81
2022/01/06 04:12:37;;;;;;;7.00;4.27;;;;;;;3.70;84.72;99339.27;1470107;88;22100;-82
2022/01/06 04:15:12;;;;;;;6.43;3.60;;;;;;;3.72;84.56;99339.15;1489712;88;22267;-82
2022/01/06 04:17:41;;;;;;;8.00;4.77;;;;;;;3.74;84.70;99343.75;1476778;88;22217;-81
2022/01/06 04:20:08;;;;;;;10.43;5.70;;;;;;;3.75;85.55;99346.73;1420290;89;22123;-81
2022/01/06 04:22:36;;;;;;;9.17;5.67;;;;;;;3.74;85.60;99348.98;1398411;88;22094;-82
2022/01/06 04:25:03;;;;;;;15.53;6.43;;;;;;;3.74;85.36;99358.14;1436413;88;23002;-82
2022/01/06 04:27:29;;;;;;;7.60;4.60;;;;;;;3.75;85.28;99375.52;1439710;88;22102;-82
2022/01/06 04:29:55;;;;;;;8.87;5.10;;;;;;;3.79;85.15;99383.45;1429287;88;22042;-81
2022/01/06 04:32:21;;;;;;;6.90;4.03;;;;;;;3.81;84.98;99378.93;1470100;88;23591;-82
2022/01/06 04:34:47;;;;;;;6.37;4.20;;;;;;;3.76;85.11;99385.02;1408488;88;22452;-83
2022/01/06 04:37:14;;;;;;;7.53;4.33;;;;;;;3.84;85.73;99403.53;1434964;88;22166;-82
2022/01/06 04:39:40;;;;;;;6.57;3.73;;;;;;;3.83;86.32;99414.97;1414868;88;22041;-81
2022/01/06 04:42:07;;;;;;;5.40;3.33;;;;;;;3.85;86.45;99424.81;1415279;88;22141;-82
2022/01/06 04:44:33;;;;;;;7.07;2.70;;;;;;;3.86;86.53;99436.96;1430800;88;22021;-82
2022/01/06 04:47:00;;;;;;;6.07;3.27;;;;;;;3.90;86.08;99452.75;1426380;88;22079;-81
2022/01/06 04:49:27;;;;;;;5.33;3.10;;;;;;;3.94;85.74;99460.72;1443632;88;21997;-83
2022/01/06 04:51:53;;;;;;;6.00;2.83;;;;;;;3.97;85.85;99475.30;1438468;88;22113;-81
2022/01/06 04:54:19;;;;;;;5.83;3.33;;;;;;;3.98;85.58;99483.53;1431447;89;22036;-83
2022/01/06 04:56:46;;;;;;;8.07;3.80;;;;;;;3.97;85.68;99487.09;1392205;89;21989;-84
2022/01/06 04:59:12;;;;;;;4.97;3.23;;;;;;;3.95;85.74;99487.72;1390894;89;23020;-83
2022/01/06 05:01:38;;;;;;;7.07;2.83;;;;;;;3.93;86.14;99482.25;1395668;88;22433;-83
2022/01/06 05:04:06;;;;;;;5.90;2.97;;;;;;;3.92;86.12;99482.25;1465603;88;21420;-83
2022/01/06 05:06:32;;;;;;;5.03;3.73;;;;;;;3.94;86.25;99496.51;1437403;88;23435;-82
2022/01/06 05:08:58;;;;;;;6.27;3.93;;;;;;;3.96;85.98;99500.06;1448593;88;22128;-83
2022/01/06 05:11:24;;;;;;;8.37;3.63;;;;;;;3.98;85.70;99500.06;1443991;88;21427;-82
2022/01/06 05:13:51;;;;;;;4.97;3.87;;;;;;;4.00;85.53;99499.47;1446019;87;22168;-83
2022/01/06 05:16:17;;;;;;;6.57;3.87;;;;;;;4.00;85.29;99471.97;1448739;88;21645;-83
2022/01/06 05:18:44;;;;;;;7.67;3.93;;;;;;;4.00;85.29;99471.97;1442635;88;21470;-83
2022/01/06 05:21:19;;;;;;;8.50;4.30;;;;;;;3.97;85.21;99443.89;1425490;87;22100;-81
2022/01/06 05:23:46;;;;;;;7.23;4.17;;;;;;;3.75;85.96;99437.03;1431986;90;21465;-81
2022/01/06 05:26:13;;;;;;;6.83;4.13;;;;;;;3.75;85.96;99437.03;1421271;90;21473;-82
2022/01/06 05:28:39;;;;;;;6.60;3.80;;;;;;;3.75;86.34;99430.48;1445160;88;21605;-82
2022/01/06 05:31:06;;;;;;;7.83;4.20;;;;;;;3.68;86.50;99438.48;1451479;88;21541;-81
2022/01/06 05:33:32;;;;;;;9.80;4.20;;;;;;;3.69;86.50;99440.98;1431775;89;21502;-81
2022/01/06 05:35:58;;;;;;;6.90;4.53;;;;;;;3.67;87.22;99473.47;1440599;89;22249;-82
2022/01/06 05:38:24;;;;;;;8.60;4.10;;;;;;;3.70;86.97;99487.12;1450790;88;23282;-82
2022/01/06 05:40:51;;;;;;;6.20;3.50;;;;;;;3.72;86.85;99461.66;1447310;88;22103;-80
2022/01/06 05:43:19;;;;;;;6.37;3.50;;;;;;;3.71;86.49;99449.55;1445883;88;21589;-80
2022/01/06 05:45:45;;;;;;;6.37;3.70;;;;;;;3.64;86.46;99454.92;1410363;90;22159;-81
2022/01/06 05:48:11;;;;;;;7.50;3.93;;;;;;;3.59;86.48;99459.70;1445363;88;22028;-80
2022/01/06 05:50:37;;;;;;;6.00;3.37;;;;;;;3.61;86.45;99464.33;1452171;88;22147;-80
2022/01/06 05:53:03;;;;;;;10.77;5.30;;;;;;;3.54;86.56;99445.70;1460994;88;23002;-79
2022/01/06 05:55:30;;;;;;;7.90;3.90;;;;;;;3.54;86.56;99445.70;1451667;88;21391;-80
2022/01/06 05:57:56;;;;;;;6.40;3.53;;;;;;;3.55;86.69;99476.13;1476736;88;22064;-79
2022/01/06 06:00:22;;;;;;;6.97;3.83;;;;;;;3.56;86.91;99496.09;1451867;90;22066;-78
2022/01/06 06:02:48;;;;;;;6.20;3.47;;;;;;;3.58;87.10;99488.14;1458757;88;22390;-78
2022/01/06 06:05:14;;;;;;;7.77;4.10;;;;;;;3.49;87.43;99478.44;1438952;88;22043;-77
2022/01/06 06:07:40;;;;;;;9.77;4.70;;;;;;;3.44;87.40;99473.56;1436534;88;21378;-77
2022/01/06 06:10:08;;;;;;;6.23;3.93;;;;;;;3.45;87.22;99484.38;1441648;88;22073;-78
2022/01/06 06:12:34;;;;;;;6.60;4.07;;;;;;;3.49;87.63;99515.88;1430901;87;22057;-77
2022/01/06 06:15:00;;;;;;;6.40;4.23;;;;;;;3.56;86.96;99518.82;1425968;88;22215;-78
2022/01/06 06:17:26;;;;;;;7.50;4.63;;;;;;;3.59;87.25;99527.24;1375518;88;22043;-78
2022/01/06 06:19:52;;;;;;;11.37;3.70;;;;;;;3.59;86.90;99542.95;1417019;88;21400;-79
2022/01/06 06:22:18;;;;;;;6.63;4.30;;;;;;;3.63;86.90;99544.03;1430833;88;22123;-78
2022/01/06 06:24:45;;;;;;;8.97;4.73;;;;;;;3.65;86.91;99539.48;1423380;88;22552;-79
2022/01/06 06:27:11;;;;;;;9.17;4.60;;;;;;;3.66;86.90;99534.63;1450904;88;22049;-79
2022/01/06 06:29:37;;;;;;;7.43;4.20;;;;;;;3.66;86.35;99547.70;1452718;88;22054;-80
2022/01/06 06:32:05;;;;;;;10.00;4.83;;;;;;;3.68;86.46;99547.08;1405967;88;23135;-80
2022/01/06 06:34:31;;;;;;;7.47;4.20;;;;;;;3.69;86.69;99542.22;1496100;88;22083;-80
2022/01/06 06:36:58;;;;;;;9.23;4.30;;;;;;;3.72;86.23;99538.05;1467586;88;23004;-80
2022/01/06 06:39:24;;;;;;;6.53;3.90;;;;;;;3.72;86.23;99538.05;1446761;88;21393;-79
2022/01/06 06:41:51;;;;;;;5.20;3.83;;;;;;;3.78;86.19;99548.00;1438589;88;22099;-79
2022/01/06 06:44:17;;;;;;;5.87;3.53;;;;;;;3.78;85.31;99555.86;1408975;88;22059;-79
2022/01/06 06:46:43;;;;;;;12.80;7.20;;;;;;;3.78;85.62;99557.99;1414331;88;22220;-79
2022/01/06 06:49:09;;;;;;;7.63;4.33;;;;;;;3.78;85.62;99557.99;1398906;89;21378;-82
2022/01/06 06:51:35;;;;;;;8.17;4.33;;;;;;;3.74;84.88;99560.97;1422243;89;21992;-82
2022/01/06 06:54:02;;;;;;;13.00;5.80;;;;;;;3.72;85.13;99564.21;1447849;88;22183;-82
2022/01/06 06:56:28;;;;;;;11.43;7.00;;;;;;;3.75;85.30;99566.58;1416375;88;22036;-81
2022/01/06 06:58:55;;;;;;;6.07;3.87;;;;;;;3.81;85.59;99571.31;1402621;88;22185;-82
2022/01/06 07:01:21;;;;;;;5.67;3.57;;;;;;;3.87;85.76;99572.59;1423730;87;23032;-82
2022/01/06 07:03:47;;;;;;;7.47;3.23;;;;;;;3.92;85.76;99566.52;1390864;90;23085;-82
2022/01/06 07:06:13;;;;;;;56.40;33.00;;;;;;;3.92;85.48;99569.95;1379764;92;22028;-81
2022/01/06 07:08:39;;;;;;;23.20;13.93;;;;;;;3.85;85.21;99584.48;1428549;90;22058;-81
2022/01/06 07:11:06;;;;;;;14.07;9.40;;;;;;;3.79;85.52;99582.37;1402555;90;22001;-82
2022/01/06 07:13:32;;;;;;;8.77;5.30;;;;;;;3.76;85.65;99593.09;1406804;89;22288;-81
2022/01/06 07:15:58;;;;;;;11.97;6.70;;;;;;;3.76;85.54;99599.64;1441118;89;22056;-81
2022/01/06 07:18:24;;;;;;;18.60;6.77;;;;;;;3.79;85.98;99613.78;1405948;91;22140;-80
2022/01/06 07:20:50;;;;;;;32.97;11.73;;;;;;;3.82;86.04;99606.98;1412488;90;23106;-81
2022/01/06 07:23:17;;;;;;;30.17;12.03;;;;;;;3.81;85.45;99614.02;1381221;91;22047;-81
2022/01/06 07:25:43;;;;;;;28.77;12.23;;;;;;;3.83;85.36;99613.91;1419896;90;23419;-80
2022/01/06 07:28:09;;;;;;;9.37;4.40;;;;;;;3.81;85.09;99619.25;1442752;89;22090;-80
2022/01/06 07:30:35;;;;;;;10.17;5.03;;;;;;;3.84;85.25;99609.84;1466940;89;22093;-81
2022/01/06 07:33:01;;;;;;;7.23;4.60;;;;;;;3.89;85.47;99622.56;1431595;90;22946;-80
2022/01/06 07:35:28;;;;;;;7.33;5.23;;;;;;;3.93;85.65;99623.14;1380997;90;22051;-79
2022/01/06 07:37:54;;;;;;;10.37;4.93;;;;;;;3.95;85.16;99633.84;1390719;89;22116;-82
2022/01/06 07:40:21;;;;;;;7.53;4.60;;;;;;;3.95;85.06;99640.39;1419547;89;23195;-82
2022/01/06 07:42:49;;;;;;;10.80;5.17;;;;;;;4.00;84.73;99624.29;1433939;87;22019;-81
2022/01/06 07:45:16;;;;;;;11.57;5.17;;;;;;;4.00;84.73;99624.29;1441333;88;22250;-80
2022/01/06 07:47:57;;;;;;;12.73;6.03;;;;;;;4.16;84.78;99629.12;1436724;88;22095;-81
2022/01/06 07:50:26;;;;;;;8.53;4.97;;;;;;;4.16;84.78;99629.12;1430524;90;21353;-81
2022/01/06 07:52:53;;;;;;;9.33;5.95;;;;;;;4.27;84.30;99627.76;1427513;89;21334;-81
2022/01/06 07:55:20;;;;;;;11.30;7.50;;;;;;;4.34;84.18;99631.52;1407100;91;21540;-81
2022/01/06 07:57:46;;;;;;;11.37;5.00;;;;;;;4.48;83.52;99625.96;1418651;89;22318;-81
2022/01/06 08:00:13;;;;;;;10.83;6.23;;;;;;;4.48;83.52;99625.96;1407052;90;21481;-81
2022/01/06 08:02:40;;;;;;;11.53;6.87;;;;;;;4.52;82.90;99619.52;1406022;89;21524;-82
2022/01/06 08:05:10;;;;;;;17.00;8.07;;;;;;;4.56;82.31;99628.44;1387521;90;21703;-81
2022/01/06 08:07:35;;;;;;;12.60;7.30;;;;;;;4.65;82.59;99626.34;1400995;90;21637;-82
2022/01/06 08:10:02;;;;;;;16.70;9.03;;;;;;;4.74;81.39;99634.73;1397887;91;21628;-81
2022/01/06 08:12:28;;;;;;;17.80;7.63;;;;;;;4.83;81.69;99630.02;1456855;88;22293;-81
2022/01/06 08:14:54;;;;;;;19.47;9.60;;;;;;;4.97;81.66;99625.74;1438675;88;21436;-81
2022/01/06 08:17:21;;;;;;;24.90;10.97;;;;;;;5.11;81.16;99623.73;1423379;88;21458;-81
2022/01/06 08:19:51;;;;;;;18.07;9.07;;;;;;;5.24;80.82;99621.73;1447756;88;23644;-81
2022/01/06 08:22:22;;;;;;;14.93;7.65;;;;;;;5.28;77.83;99622.28;1440306;88;21538;-82
2022/01/06 08:24:48;;;;;;;16.87;9.03;;;;;;;5.30;78.23;99622.50;1446138;88;21636;-81
2022/01/06 08:27:14;;;;;;;13.10;7.13;;;;;;;5.33;77.39;99627.97;1440599;88;21489;-82
2022/01/06 08:29:41;;;;;;;10.57;6.10;;;;;;;5.33;77.23;99638.47;1420799;90;22538;-81
2022/01/06 08:32:10;;;;;;;9.97;5.20;;;;;;;5.32;76.14;99645.97;1461318;88;21529;-81
2022/01/06 08:34:36;;;;;;;10.10;4.33;;;;;;;5.32;76.45;99657.32;1464554;88;21545;-82
2022/01/06 08:37:03;;;;;;;6.67;4.33;;;;;;;5.34;76.00;99657.99;1441264;88;21526;-82
2022/01/06 08:39:29;;;;;;;11.17;5.33;;;;;;;5.31;73.37;99664.83;1435106;88;21472;-81
2022/01/06 08:41:55;;;;;;;13.53;7.27;;;;;;;5.32;73.97;99681.39;1419707;89;21458;-82
2022/01/06 08:44:22;;;;;;;13.40;6.37;;;;;;;5.31;73.70;99687.61;1421652;88;21442;-82
2022/01/06 08:46:48;;;;;;;11.47;7.10;;;;;;;5.25;72.72;99685.03;1426201;89;21529;-81
2022/01/06 08:49:16;;;;;;;15.70;8.97;;;;;;;5.27;73.77;99679.67;1416036;88;22618;-80
2022/01/06 08:51:43;;;;;;;11.37;6.50;;;;;;;5.25;73.83;99678.95;1473306;88;21296;-81
2022/01/06 08:54:09;;;;;;;20.57;9.37;;;;;;;5.28;74.70;99687.39;1452417;88;22129;-81
2022/01/06 08:56:36;;;;;;;13.73;5.93;;;;;;;5.26;73.57;99695.87;1425325;88;21331;-81
2022/01/06 08:59:04;;;;;;;10.33;6.37;;;;;;;5.25;72.30;99699.95;1419517;90;22193;-82
2022/01/06 09:01:31;;;;;;;12.20;6.57;;;;;;;5.25;73.52;99702.57;1434549;89;21492;-81
2022/01/06 09:03:58;;;;;;;10.83;5.80;;;;;;;5.16;72.21;99714.69;1418525;89;21416;-81
2022/01/06 09:06:24;;;;;;;16.37;6.83;;;;;;;5.07;72.48;99711.53;1401536;89;21450;-81
2022/01/06 09:08:52;;;;;;;14.87;6.87;;;;;;;5.02;72.90;99712.39;1460297;89;21348;-82
2022/01/06 09:11:21;;;;;;;15.17;6.17;;;;;;;5.09;74.08;99714.38;1393403;92;21382;-81
2022/01/06 09:13:48;;;;;;;11.43;5.92;;;;;;;5.16;73.90;99708.95;1411651;89;21443;-82
2022/01/06 09:16:14;;;;;;;9.03;5.07;;;;;;;5.24;73.89;99718.80;1417827;89;21310;-81
2022/01/06 09:18:41;;;;;;;14.33;6.50;;;;;;;5.27;73.38;99722.95;1416607;89;21416;-81
2022/01/06 09:21:09;;;;;;;8.43;6.20;;;;;;;5.28;73.68;99726.75;1406260;90;22278;-81
2022/01/06 09:23:36;;;;;;;10.77;4.73;;;;;;;5.28;73.55;99733.31;1383788;91;21294;-82
2022/01/06 09:26:03;;;;;;;12.30;6.47;;;;;;;5.26;72.87;99727.34;1380176;90;21363;-81
2022/01/06 09:28:29;;;;;;;9.23;4.60;;;;;;;5.24;73.44;99745.03;1403896;91;21964;-82
2022/01/06 09:30:57;;;;;;;7.70;4.43;;;;;;;5.23;73.16;99739.42;1422789;89;22503;-81
2022/01/06 09:33:24;;;;;;;7.90;4.40;;;;;;;5.22;73.09;99745.64;1425884;89;21474;-82
2022/01/06 09:35:54;;;;;;;11.70;5.20;;;;;;;5.25;73.42;99755.88;1431420;89;21584;-82
2022/01/06 09:38:21;;;;;;;10.30;4.83;;;;;;;5.26;73.52;99744.89;1412753;91;21458;-82
2022/01/06 09:40:48;;;;;;;9.30;5.17;;;;;;;5.30;73.65;99743.20;1416426;89;21633;-81
2022/01/06 09:43:14;;;;;;;9.80;5.13;;;;;;;5.30;72.60;99741.89;1419946;89;21459;-81
2022/01/06 09:45:42;;;;;;;10.50;4.93;;;;;;;5.30;73.01;99748.45;1423475;89;21548;-81
2022/01/06 09:48:09;;;;;;;6.93;3.80;;;;;;;5.31;72.80;99746.16;1427554;90;22623;-82
2022/01/06 09:50:42;;;;;;;9.00;4.10;;;;;;;5.33;71.17;99744.25;1416854;90;21363;-81
2022/01/06 09:53:05;;;;;;;8.90;4.67;;;;;;;5.38;72.92;99746.01;1412564;90;22426;-81
2022/01/06 09:55:31;;;;;;;9.07;5.03;;;;;;;5.38;72.34;99747.31;1433001;90;21494;-82
2022/01/06 09:58:01;;;;;;;12.93;5.20;;;;;;;5.41;73.00;99748.85;1403898;91;21489;-82
2022/01/06 10:00:30;;;;;;;11.63;5.00;;;;;;;5.46;73.37;99756.31;1410904;91;21508;-82
2022/01/06 10:03:06;;;;;;;8.80;4.77;;;;;;;5.42;73.20;99755.27;1426270;88;21546;-81
2022/01/06 10:05:44;;;;;;;8.67;4.60;;;;;;;5.46;73.06;99756.31;1454783;88;21606;-82
2022/01/06 10:08:13;;;;;;;9.07;4.40;;;;;;;5.43;72.69;99760.03;1445988;88;21458;-81
2022/01/06 10:10:40;;;;;;;7.77;3.80;;;;;;;5.42;72.52;99755.75;1437244;89;21296;-81
2022/01/06 10:13:09;;;;;;;11.70;5.23;;;;;;;5.41;71.90;99760.18;1441420;88;21516;-81
2022/01/06 10:15:38;;;;;;;8.63;4.80;;;;;;;5.40;71.95;99754.56;1423452;88;21377;-80
2022/01/06 10:18:14;;;;;;;10.10;5.03;;;;;;;5.41;71.60;99747.05;1441373;89;21540;-82
2022/01/06 10:20:41;;;;;;;8.43;5.53;;;;;;;5.41;71.00;99754.10;1439883;89;21547;-81
2022/01/06 10:23:14;;;;;;;9.63;4.60;;;;;;;5.43;70.97;99754.30;1427647;89;22406;-81
2022/01/06 10:25:51;;;;;;;13.57;5.20;;;;;;;5.48;71.24;99750.46;1425296;91;22553;-81
2022/01/06 10:28:21;;;;;;;9.93;6.20;;;;;;;5.53;71.14;99760.09;1417637;91;22900;-81
2022/01/06 10:30:49;;;;;;;9.70;5.63;;;;;;;5.55;70.59;99761.62;1410455;90;21592;-81
2022/01/06 10:33:17;;;;;;;9.57;5.30;;;;;;;5.59;70.47;99768.75;1410981;91;21501;-81
2022/01/06 10:35:44;;;;;;;8.07;5.23;;;;;;;5.62;69.90;99768.48;1424903;91;21457;-81
2022/01/06 10:38:10;;;;;;;9.50;5.23;;;;;;;5.65;70.12;99774.78;1413774;91;21555;-80
2022/01/06 10:40:38;;;;;;;4.97;3.43;;;;;;;5.69;68.53;99777.48;1422640;91;21408;-81
2022/01/06 10:43:06;;;;;;;6.73;2.57;;;;;;;5.74;68.50;99777.92;1425494;90;22280;-81
2022/01/06 10:45:34;;;;;;;5.47;3.47;;;;;;;5.76;65.96;99777.31;1437128;89;22515;-81
2022/01/06 10:48:03;;;;;;;6.40;2.93;;;;;;;5.70;65.09;99780.48;1423228;91;22380;-81
2022/01/06 10:50:36;;;;;;;4.80;2.43;;;;;;;5.74;66.50;99771.36;1430365;89;22395;-81
2022/01/06 10:53:07;;;;;;;4.90;2.37;;;;;;;5.81;65.85;99783.01;1443241;89;21503;-81
2022/01/06 10:55:38;;;;;;;5.67;2.53;;;;;;;5.81;61.36;99775.59;1421652;89;22664;-81
2022/01/06 10:58:21;;;;;;;3.25;1.67;;;;;;;5.83;63.03;99778.44;1419349;91;21544;-81
2022/01/06 11:01:01;;;;;;;4.77;1.90;;;;;;;5.78;62.52;99771.46;1437282;90;21429;-82
2022/01/06 11:03:36;;;;;;;6.65;3.10;;;;;;;5.80;62.74;99768.20;1419073;90;21488;-81
2022/01/06 11:06:05;;;;;;;6.57;3.23;;;;;;;5.83;63.54;99773.18;1408698;91;21415;-82
2022/01/06 11:08:36;;;;;;;4.93;3.10;;;;;;;5.87;62.39;99772.45;1420918;91;21523;-81
2022/01/06 11:13:44;;;;;;;7.33;4.17;;;;;;;5.92;62.74;99778.12;1433918;91;21568;-81
2022/01/06 11:16:17;;;;;;;7.37;3.70;;;;;;;5.91;63.19;99776.95;1421080;91;21444;-81
2022/01/06 11:18:56;;;;;;;7.77;3.70;;;;;;;5.89;63.17;99782.33;1430035;90;23645;-81
2022/01/06 11:21:35;;;;;;;7.33;3.57;;;;;;;5.86;62.33;99793.09;1438844;89;21437;-81
2022/01/06 11:24:01;;;;;;;6.33;3.67;;;;;;;5.86;63.18;99790.47;1445494;89;21537;-80
2022/01/06 11:26:27;;;;;;;5.87;3.40;;;;;;;5.87;64.63;99792.98;1440260;89;21477;-80
2022/01/06 11:28:58;;;;;;;6.13;3.80;;;;;;;5.99;65.89;99792.91;1438809;89;22410;-81
2022/01/06 11:31:28;;;;;;;8.53;4.40;;;;;;;6.16;66.79;99787.47;1434771;91;21627;-80
2022/01/06 11:33:56;;;;;;;10.30;3.67;;;;;;;6.22;64.21;99793.53;1415969;90;21478;-80
2022/01/06 11:36:30;;;;;;;7.80;3.47;;;;;;;6.22;63.74;99786.47;1444444;89;21643;-80
2022/01/06 11:38:59;;;;;;;4.63;3.33;;;;;;;6.26;62.67;99790.48;1435132;89;21584;-80
2022/01/06 11:41:37;;;;;;;4.97;2.90;;;;;;;6.30;63.57;99791.88;1427292;90;21500;-79
2022/01/06 11:44:22;;;;;;;6.20;3.90;;;;;;;6.44;64.08;99792.44;1420037;90;21465;-80
2022/01/06 11:46:53;;;;;;;7.53;3.77;;;;;;;6.60;62.30;99792.74;1418674;90;21369;-79
2022/01/06 11:49:42;;;;;;;8.03;3.90;;;;;;;6.59;61.91;99796.81;1411541;91;21568;-79
2022/01/06 11:52:17;;;;;;;5.87;2.97;;;;;;;6.62;63.04;99799.16;1448205;89;21448;-80
2022/01/06 11:54:55;;;;;;;8.73;3.50;;;;;;;6.57;62.54;99795.65;1428340;89;21457;-80
2022/01/06 11:57:36;;;;;;;8.23;3.57;;;;;;;6.53;62.87;99804.76;1423215;89;21996;-80
2022/01/06 12:00:26;;;;;;;7.47;3.12;;;;;;;6.58;63.22;99803.05;1442969;89;21484;-79
2022/01/06 12:03:09;;;;;;;8.77;3.80;;;;;;;6.51;62.44;99806.23;1407786;91;22279;-80
2022/01/06 12:05:52;;;;;;;7.07;3.33;;;;;;;6.66;63.41;99804.51;1412851;91;21915;-80